sensor_id;sensor_type;location;lat;lon;timestamp;P1;durP1;ratioP1;P2;durP2;ratioP2
57327;SDS011;43162;51.040;18.244;2023-01-01T00:02:05;16.00;;;9.30;;
57327;SDS011;43162;51.040;18.244;2023-01-01T00:04:31;16.00;;;8.50;;
57327;SDS011;43162;51.040;18.244;2023-01-01T00:06:58;20.60;;;10.30;;
57327;SDS011;43162;51.040;18.244;2023-01-01T00:09:25;15.40;;;8.50;;
57327;SDS011;43162;51.040;18.244;2023-01-01T00:12:09;16.80;;;7.90;;
57327;SDS011;43162;51.040;18.244;2023-01-01T00:14:35;25.10;;;9.50;;
57327;SDS011;43162;51.040;18.244;2023-01-01T00:17:00;26.20;;;9.30;;
57327;SDS011;43162;51.040;18.244;2023-01-01T00:19:26;21.50;;;10.40;;
57327;SDS011;43162;51.040;18.244;2023-01-01T00:21:52;20.30;;;8.80;;
57327;SDS011;43162;51.040;18.244;2023-01-01T00:24:18;20.00;;;8.90;;
57327;SDS011;43162;51.040;18.244;2023-01-01T00:26:44;15.90;;;8.60;;
57327;SDS011;43162;51.040;18.244;2023-01-01T00:29:10;17.90;;;8.90;;
57327;SDS011;43162;51.040;18.244;2023-01-01T00:31:36;18.60;;;8.60;;
57327;SDS011;43162;51.040;18.244;2023-01-01T00:34:02;16.80;;;8.90;;
57327;SDS011;43162;51.040;18.244;2023-01-01T00:36:28;17.60;;;8.90;;
57327;SDS011;43162;51.040;18.244;2023-01-01T00:38:54;13.20;;;8.80;;
57327;SDS011;43162;51.040;18.244;2023-01-01T00:41:20;16.70;;;8.40;;
57327;SDS011;43162;51.040;18.244;2023-01-01T00:43:46;15.00;;;8.20;;
57327;SDS011;43162;51.040;18.244;2023-01-01T00:46:12;22.20;;;10.20;;
57327;SDS011;43162;51.040;18.244;2023-01-01T00:48:38;28.00;;;12.20;;
57327;SDS011;43162;51.040;18.244;2023-01-01T00:51:04;32.90;;;12.90;;
57327;SDS011;43162;51.040;18.244;2023-01-01T00:53:30;21.90;;;9.50;;
57327;SDS011;43162;51.040;18.244;2023-01-01T00:55:55;16.70;;;8.40;;
57327;SDS011;43162;51.040;18.244;2023-01-01T00:58:21;22.80;;;8.30;;
57327;SDS011;43162;51.040;18.244;2023-01-01T01:00:48;14.50;;;8.40;;
57327;SDS011;43162;51.040;18.244;2023-01-01T01:03:15;15.70;;;8.40;;
57327;SDS011;43162;51.040;18.244;2023-01-01T01:06:15;12.80;;;7.10;;
57327;SDS011;43162;51.040;18.244;2023-01-01T01:08:40;12.80;;;7.10;;
57327;SDS011;43162;51.040;18.244;2023-01-01T01:11:09;12.20;;;7.00;;
57327;SDS011;43162;51.040;18.244;2023-01-01T01:13:37;13.10;;;7.10;;
57327;SDS011;43162;51.040;18.244;2023-01-01T01:16:11;12.10;;;6.60;;
57327;SDS011;43162;51.040;18.244;2023-01-01T01:18:38;16.20;;;8.00;;
57327;SDS011;43162;51.040;18.244;2023-01-01T01:21:04;15.40;;;7.50;;
57327;SDS011;43162;51.040;18.244;2023-01-01T01:23:31;12.50;;;7.80;;
57327;SDS011;43162;51.040;18.244;2023-01-01T01:26:14;11.60;;;6.00;;
57327;SDS011;43162;51.040;18.244;2023-01-01T01:28:44;11.30;;;7.30;;
57327;SDS011;43162;51.040;18.244;2023-01-01T01:31:10;15.80;;;7.50;;
57327;SDS011;43162;51.040;18.244;2023-01-01T01:33:35;11.50;;;6.30;;
57327;SDS011;43162;51.040;18.244;2023-01-01T01:36:02;11.30;;;6.80;;
57327;SDS011;43162;51.040;18.244;2023-01-01T01:38:28;14.10;;;7.10;;
57327;SDS011;43162;51.040;18.244;2023-01-01T01:40:54;13.10;;;7.10;;
57327;SDS011;43162;51.040;18.244;2023-01-01T01:43:24;11.40;;;5.90;;
57327;SDS011;43162;51.040;18.244;2023-01-01T01:46:00;14.20;;;7.20;;
57327;SDS011;43162;51.040;18.244;2023-01-01T01:48:41;10.10;;;5.90;;
57327;SDS011;43162;51.040;18.244;2023-01-01T01:51:09;13.00;;;7.30;;
57327;SDS011;43162;51.040;18.244;2023-01-01T01:53:37;12.40;;;6.50;;
57327;SDS011;43162;51.040;18.244;2023-01-01T01:56:07;9.60;;;6.10;;
57327;SDS011;43162;51.040;18.244;2023-01-01T01:58:35;13.30;;;6.40;;
57327;SDS011;43162;51.040;18.244;2023-01-01T02:01:01;10.50;;;7.00;;
57327;SDS011;43162;51.040;18.244;2023-01-01T02:03:32;9.70;;;6.60;;
57327;SDS011;43162;51.040;18.244;2023-01-01T02:06:04;8.70;;;5.30;;
57327;SDS011;43162;51.040;18.244;2023-01-01T02:08:29;12.80;;;6.30;;
57327;SDS011;43162;51.040;18.244;2023-01-01T02:10:55;13.10;;;5.60;;
57327;SDS011;43162;51.040;18.244;2023-01-01T02:13:21;11.80;;;6.30;;
57327;SDS011;43162;51.040;18.244;2023-01-01T02:15:59;11.00;;;6.30;;
57327;SDS011;43162;51.040;18.244;2023-01-01T02:18:38;9.60;;;6.10;;
57327;SDS011;43162;51.040;18.244;2023-01-01T02:21:23;12.10;;;6.20;;
57327;SDS011;43162;51.040;18.244;2023-01-01T02:27:12;11.50;;;6.40;;
57327;SDS011;43162;51.040;18.244;2023-01-01T02:29:59;14.10;;;6.90;;
57327;SDS011;43162;51.040;18.244;2023-01-01T02:32:31;14.70;;;7.40;;
57327;SDS011;43162;51.040;18.244;2023-01-01T02:35:04;14.40;;;7.90;;
57327;SDS011;43162;51.040;18.244;2023-01-01T02:37:55;14.70;;;8.10;;
57327;SDS011;43162;51.040;18.244;2023-01-01T02:40:24;12.20;;;8.00;;
57327;SDS011;43162;51.040;18.244;2023-01-01T02:42:51;14.00;;;7.90;;
57327;SDS011;43162;51.040;18.244;2023-01-01T02:45:18;17.30;;;9.20;;
57327;SDS011;43162;51.040;18.244;2023-01-01T02:47:44;15.70;;;9.00;;
57327;SDS011;43162;51.040;18.244;2023-01-01T02:55:12;12.80;;;7.40;;
57327;SDS011;43162;51.040;18.244;2023-01-01T02:57:55;15.90;;;8.60;;
57327;SDS011;43162;51.040;18.244;2023-01-01T03:00:48;13.80;;;7.60;;
57327;SDS011;43162;51.040;18.244;2023-01-01T03:03:17;13.80;;;7.20;;
57327;SDS011;43162;51.040;18.244;2023-01-01T03:06:06;14.60;;;7.40;;
57327;SDS011;43162;51.040;18.244;2023-01-01T03:14:38;14.60;;;8.10;;
57327;SDS011;43162;51.040;18.244;2023-01-01T03:17:31;11.80;;;7.20;;
57327;SDS011;43162;51.040;18.244;2023-01-01T03:20:07;12.00;;;7.40;;
57327;SDS011;43162;51.040;18.244;2023-01-01T03:22:40;11.10;;;7.40;;
57327;SDS011;43162;51.040;18.244;2023-01-01T03:25:07;12.10;;;8.00;;
57327;SDS011;43162;51.040;18.244;2023-01-01T03:27:36;13.50;;;7.60;;
57327;SDS011;43162;51.040;18.244;2023-01-01T03:30:07;12.10;;;8.00;;
57327;SDS011;43162;51.040;18.244;2023-01-01T03:32:36;12.70;;;7.50;;
57327;SDS011;43162;51.040;18.244;2023-01-01T03:35:23;11.20;;;7.60;;
57327;SDS011;43162;51.040;18.244;2023-01-01T03:37:50;10.00;;;7.10;;
57327;SDS011;43162;51.040;18.244;2023-01-01T03:40:19;13.90;;;7.70;;
57327;SDS011;43162;51.040;18.244;2023-01-01T03:42:48;11.90;;;6.90;;
57327;SDS011;43162;51.040;18.244;2023-01-01T03:45:27;12.10;;;7.60;;
57327;SDS011;43162;51.040;18.244;2023-01-01T03:47:55;15.80;;;8.50;;
57327;SDS011;43162;51.040;18.244;2023-01-01T03:50:22;11.10;;;6.90;;
57327;SDS011;43162;51.040;18.244;2023-01-01T03:58:49;11.30;;;6.70;;
57327;SDS011;43162;51.040;18.244;2023-01-01T04:01:21;10.80;;;6.70;;
57327;SDS011;43162;51.040;18.244;2023-01-01T04:03:49;12.70;;;6.80;;
57327;SDS011;43162;51.040;18.244;2023-01-01T04:06:15;12.60;;;7.10;;
57327;SDS011;43162;51.040;18.244;2023-01-01T04:08:42;11.10;;;6.90;;
57327;SDS011;43162;51.040;18.244;2023-01-01T04:11:15;13.50;;;6.80;;
57327;SDS011;43162;51.040;18.244;2023-01-01T04:14:01;11.00;;;6.30;;
57327;SDS011;43162;51.040;18.244;2023-01-01T04:16:26;11.80;;;6.90;;
57327;SDS011;43162;51.040;18.244;2023-01-01T04:18:52;13.80;;;6.80;;
57327;SDS011;43162;51.040;18.244;2023-01-01T04:21:19;12.40;;;6.70;;
57327;SDS011;43162;51.040;18.244;2023-01-01T04:23:46;8.80;;;6.40;;
57327;SDS011;43162;51.040;18.244;2023-01-01T04:26:12;8.80;;;6.00;;
57327;SDS011;43162;51.040;18.244;2023-01-01T04:28:39;12.40;;;6.70;;
57327;SDS011;43162;51.040;18.244;2023-01-01T04:31:07;12.80;;;7.20;;
57327;SDS011;43162;51.040;18.244;2023-01-01T04:33:33;10.60;;;7.10;;
57327;SDS011;43162;51.040;18.244;2023-01-01T04:36:03;11.40;;;6.70;;
57327;SDS011;43162;51.040;18.244;2023-01-01T04:38:34;10.50;;;5.80;;
57327;SDS011;43162;51.040;18.244;2023-01-01T04:41:01;7.50;;;5.60;;
57327;SDS011;43162;51.040;18.244;2023-01-01T04:43:27;11.00;;;5.90;;
57327;SDS011;43162;51.040;18.244;2023-01-01T04:45:57;9.20;;;5.90;;
57327;SDS011;43162;51.040;18.244;2023-01-01T04:50:58;12.60;;;6.90;;
57327;SDS011;43162;51.040;18.244;2023-01-01T04:53:27;10.80;;;6.30;;
57327;SDS011;43162;51.040;18.244;2023-01-01T04:55:54;10.00;;;6.00;;
57327;SDS011;43162;51.040;18.244;2023-01-01T04:58:20;8.90;;;6.20;;
57327;SDS011;43162;51.040;18.244;2023-01-01T05:00:49;13.40;;;6.80;;
57327;SDS011;43162;51.040;18.244;2023-01-01T05:03:16;10.80;;;7.00;;
57327;SDS011;43162;51.040;18.244;2023-01-01T05:05:42;9.10;;;6.20;;
57327;SDS011;43162;51.040;18.244;2023-01-01T05:08:08;10.10;;;6.50;;
57327;SDS011;43162;51.040;18.244;2023-01-01T05:10:35;10.00;;;6.20;;
57327;SDS011;43162;51.040;18.244;2023-01-01T05:13:04;10.80;;;6.80;;
57327;SDS011;43162;51.040;18.244;2023-01-01T05:15:33;11.70;;;6.20;;
57327;SDS011;43162;51.040;18.244;2023-01-01T05:18:00;11.00;;;6.10;;
57327;SDS011;43162;51.040;18.244;2023-01-01T05:20:26;14.00;;;6.50;;
57327;SDS011;43162;51.040;18.244;2023-01-01T05:22:51;8.30;;;6.00;;
57327;SDS011;43162;51.040;18.244;2023-01-01T05:25:17;10.90;;;6.00;;
57327;SDS011;43162;51.040;18.244;2023-01-01T05:27:43;9.60;;;5.90;;
57327;SDS011;43162;51.040;18.244;2023-01-01T05:30:09;13.40;;;6.20;;
57327;SDS011;43162;51.040;18.244;2023-01-01T05:32:35;8.90;;;5.40;;
57327;SDS011;43162;51.040;18.244;2023-01-01T05:35:02;8.70;;;5.20;;
57327;SDS011;43162;51.040;18.244;2023-01-01T05:37:29;9.20;;;5.00;;
57327;SDS011;43162;51.040;18.244;2023-01-01T05:39:54;8.10;;;4.70;;
57327;SDS011;43162;51.040;18.244;2023-01-01T05:42:20;11.20;;;6.60;;
57327;SDS011;43162;51.040;18.244;2023-01-01T05:44:46;11.20;;;6.20;;
57327;SDS011;43162;51.040;18.244;2023-01-01T05:47:11;12.30;;;6.20;;
57327;SDS011;43162;51.040;18.244;2023-01-01T05:49:37;11.80;;;5.80;;
57327;SDS011;43162;51.040;18.244;2023-01-01T05:52:04;12.80;;;6.10;;
57327;SDS011;43162;51.040;18.244;2023-01-01T05:54:29;11.80;;;6.30;;
57327;SDS011;43162;51.040;18.244;2023-01-01T05:56:55;11.60;;;6.10;;
57327;SDS011;43162;51.040;18.244;2023-01-01T05:59:21;11.70;;;6.20;;
57327;SDS011;43162;51.040;18.244;2023-01-01T06:01:46;9.00;;;5.30;;
57327;SDS011;43162;51.040;18.244;2023-01-01T06:04:12;10.90;;;5.60;;
57327;SDS011;43162;51.040;18.244;2023-01-01T06:06:39;9.30;;;5.60;;
57327;SDS011;43162;51.040;18.244;2023-01-01T06:09:05;10.50;;;5.10;;
57327;SDS011;43162;51.040;18.244;2023-01-01T06:11:31;8.90;;;4.80;;
57327;SDS011;43162;51.040;18.244;2023-01-01T06:13:58;9.20;;;5.50;;
57327;SDS011;43162;51.040;18.244;2023-01-01T06:16:25;8.80;;;4.90;;
57327;SDS011;43162;51.040;18.244;2023-01-01T06:18:52;8.10;;;4.70;;
57327;SDS011;43162;51.040;18.244;2023-01-01T06:21:21;7.10;;;4.40;;
57327;SDS011;43162;51.040;18.244;2023-01-01T06:23:48;8.20;;;4.40;;
57327;SDS011;43162;51.040;18.244;2023-01-01T06:28:42;7.70;;;4.50;;
57327;SDS011;43162;51.040;18.244;2023-01-01T06:31:09;11.70;;;5.60;;
57327;SDS011;43162;51.040;18.244;2023-01-01T06:33:36;11.90;;;5.70;;
57327;SDS011;43162;51.040;18.244;2023-01-01T06:36:03;15.80;;;6.60;;
57327;SDS011;43162;51.040;18.244;2023-01-01T06:38:31;12.20;;;6.90;;
57327;SDS011;43162;51.040;18.244;2023-01-01T06:41:01;8.70;;;5.10;;
57327;SDS011;43162;51.040;18.244;2023-01-01T06:43:29;9.70;;;5.10;;
57327;SDS011;43162;51.040;18.244;2023-01-01T06:45:59;9.70;;;3.90;;
57327;SDS011;43162;51.040;18.244;2023-01-01T06:48:29;10.50;;;4.50;;
57327;SDS011;43162;51.040;18.244;2023-01-01T06:50:55;9.00;;;4.50;;
57327;SDS011;43162;51.040;18.244;2023-01-01T06:53:24;8.40;;;5.10;;
57327;SDS011;43162;51.040;18.244;2023-01-01T06:55:51;8.30;;;4.90;;
57327;SDS011;43162;51.040;18.244;2023-01-01T06:58:17;9.60;;;4.50;;
57327;SDS011;43162;51.040;18.244;2023-01-01T07:00:43;9.60;;;5.00;;
57327;SDS011;43162;51.040;18.244;2023-01-01T07:03:09;9.80;;;5.30;;
57327;SDS011;43162;51.040;18.244;2023-01-01T07:05:35;9.10;;;5.40;;
57327;SDS011;43162;51.040;18.244;2023-01-01T07:08:01;10.50;;;6.20;;
57327;SDS011;43162;51.040;18.244;2023-01-01T07:10:26;8.00;;;4.60;;
57327;SDS011;43162;51.040;18.244;2023-01-01T07:12:52;8.60;;;4.70;;
57327;SDS011;43162;51.040;18.244;2023-01-01T07:15:18;9.10;;;5.00;;
57327;SDS011;43162;51.040;18.244;2023-01-01T07:17:45;9.90;;;5.00;;
57327;SDS011;43162;51.040;18.244;2023-01-01T07:20:12;11.50;;;6.10;;
57327;SDS011;43162;51.040;18.244;2023-01-01T07:22:38;14.20;;;7.70;;
57327;SDS011;43162;51.040;18.244;2023-01-01T07:25:05;15.00;;;7.30;;
57327;SDS011;43162;51.040;18.244;2023-01-01T07:27:31;11.30;;;6.00;;
57327;SDS011;43162;51.040;18.244;2023-01-01T07:29:58;12.40;;;6.50;;
57327;SDS011;43162;51.040;18.244;2023-01-01T07:32:24;11.70;;;5.50;;
57327;SDS011;43162;51.040;18.244;2023-01-01T07:34:49;13.30;;;5.80;;
57327;SDS011;43162;51.040;18.244;2023-01-01T07:37:15;13.70;;;6.90;;
57327;SDS011;43162;51.040;18.244;2023-01-01T07:39:41;16.00;;;7.20;;
57327;SDS011;43162;51.040;18.244;2023-01-01T07:42:07;15.70;;;8.60;;
57327;SDS011;43162;51.040;18.244;2023-01-01T07:44:32;22.20;;;10.70;;
57327;SDS011;43162;51.040;18.244;2023-01-01T07:47:07;15.10;;;9.50;;
57327;SDS011;43162;51.040;18.244;2023-01-01T07:49:43;11.90;;;6.70;;
57327;SDS011;43162;51.040;18.244;2023-01-01T07:52:09;11.20;;;5.50;;
57327;SDS011;43162;51.040;18.244;2023-01-01T07:54:34;8.10;;;4.60;;
57327;SDS011;43162;51.040;18.244;2023-01-01T07:57:00;8.60;;;4.80;;
57327;SDS011;43162;51.040;18.244;2023-01-01T07:59:26;5.90;;;3.50;;
57327;SDS011;43162;51.040;18.244;2023-01-01T08:01:52;11.60;;;5.00;;
57327;SDS011;43162;51.040;18.244;2023-01-01T08:04:18;31.70;;;12.30;;
57327;SDS011;43162;51.040;18.244;2023-01-01T08:06:44;28.60;;;12.20;;
57327;SDS011;43162;51.040;18.244;2023-01-01T08:09:09;22.10;;;9.00;;
57327;SDS011;43162;51.040;18.244;2023-01-01T08:11:35;42.40;;;21.70;;
57327;SDS011;43162;51.040;18.244;2023-01-01T08:14:01;26.10;;;13.90;;
57327;SDS011;43162;51.040;18.244;2023-01-01T08:16:27;23.20;;;12.10;;
57327;SDS011;43162;51.040;18.244;2023-01-01T08:18:52;25.60;;;13.50;;
57327;SDS011;43162;51.040;18.244;2023-01-01T08:21:18;37.80;;;15.40;;
57327;SDS011;43162;51.040;18.244;2023-01-01T08:23:44;181.20;;;63.60;;
57327;SDS011;43162;51.040;18.244;2023-01-01T08:26:14;139.10;;;41.40;;
57327;SDS011;43162;51.040;18.244;2023-01-01T08:28:41;101.60;;;30.90;;
57327;SDS011;43162;51.040;18.244;2023-01-01T08:31:07;95.50;;;27.10;;
57327;SDS011;43162;51.040;18.244;2023-01-01T08:33:33;49.10;;;14.00;;
57327;SDS011;43162;51.040;18.244;2023-01-01T08:35:59;54.70;;;15.00;;
57327;SDS011;43162;51.040;18.244;2023-01-01T08:38:24;35.60;;;10.70;;
57327;SDS011;43162;51.040;18.244;2023-01-01T08:40:52;35.90;;;11.20;;
57327;SDS011;43162;51.040;18.244;2023-01-01T08:43:17;165.20;;;35.00;;
57327;SDS011;43162;51.040;18.244;2023-01-01T08:45:44;140.40;;;30.90;;
57327;SDS011;43162;51.040;18.244;2023-01-01T08:48:10;130.50;;;28.00;;
57327;SDS011;43162;51.040;18.244;2023-01-01T08:50:35;92.20;;;22.20;;
57327;SDS011;43162;51.040;18.244;2023-01-01T08:53:01;36.80;;;11.00;;
57327;SDS011;43162;51.040;18.244;2023-01-01T08:55:27;44.90;;;12.70;;
57327;SDS011;43162;51.040;18.244;2023-01-01T08:57:54;58.40;;;16.30;;
57327;SDS011;43162;51.040;18.244;2023-01-01T09:00:20;46.10;;;13.00;;
57327;SDS011;43162;51.040;18.244;2023-01-01T09:02:47;27.40;;;8.90;;
57327;SDS011;43162;51.040;18.244;2023-01-01T09:05:13;15.90;;;6.70;;
57327;SDS011;43162;51.040;18.244;2023-01-01T09:07:38;25.80;;;7.00;;
57327;SDS011;43162;51.040;18.244;2023-01-01T09:10:04;10.30;;;4.50;;
57327;SDS011;43162;51.040;18.244;2023-01-01T09:12:31;15.50;;;6.60;;
57327;SDS011;43162;51.040;18.244;2023-01-01T09:14:56;50.30;;;14.20;;
57327;SDS011;43162;51.040;18.244;2023-01-01T09:17:22;36.50;;;11.60;;
57327;SDS011;43162;51.040;18.244;2023-01-01T09:19:48;40.00;;;14.20;;
57327;SDS011;43162;51.040;18.244;2023-01-01T09:22:14;27.60;;;10.40;;
57327;SDS011;43162;51.040;18.244;2023-01-01T09:24:39;25.80;;;9.90;;
57327;SDS011;43162;51.040;18.244;2023-01-01T09:27:05;12.50;;;5.00;;
57327;SDS011;43162;51.040;18.244;2023-01-01T09:29:30;16.10;;;6.00;;
57327;SDS011;43162;51.040;18.244;2023-01-01T09:31:56;27.60;;;11.00;;
57327;SDS011;43162;51.040;18.244;2023-01-01T09:34:21;18.50;;;7.10;;
57327;SDS011;43162;51.040;18.244;2023-01-01T09:36:49;16.50;;;7.10;;
57327;SDS011;43162;51.040;18.244;2023-01-01T09:39:14;8.20;;;4.00;;
57327;SDS011;43162;51.040;18.244;2023-01-01T09:44:10;7.80;;;4.30;;
57327;SDS011;43162;51.040;18.244;2023-01-01T09:46:59;11.70;;;3.90;;
57327;SDS011;43162;51.040;18.244;2023-01-01T09:52:04;5.60;;;3.90;;
57327;SDS011;43162;51.040;18.244;2023-01-01T09:54:31;7.00;;;4.20;;
57327;SDS011;43162;51.040;18.244;2023-01-01T09:57:00;8.40;;;3.80;;
57327;SDS011;43162;51.040;18.244;2023-01-01T09:59:28;7.60;;;3.60;;
57327;SDS011;43162;51.040;18.244;2023-01-01T10:04:39;8.30;;;4.40;;
57327;SDS011;43162;51.040;18.244;2023-01-01T10:07:15;12.10;;;4.20;;
57327;SDS011;43162;51.040;18.244;2023-01-01T10:12:47;12.00;;;5.30;;
57327;SDS011;43162;51.040;18.244;2023-01-01T10:15:38;9.80;;;5.20;;
57327;SDS011;43162;51.040;18.244;2023-01-01T10:18:08;9.70;;;4.70;;
57327;SDS011;43162;51.040;18.244;2023-01-01T10:20:43;8.10;;;4.60;;
57327;SDS011;43162;51.040;18.244;2023-01-01T10:23:21;8.10;;;4.60;;
57327;SDS011;43162;51.040;18.244;2023-01-01T10:25:50;10.40;;;4.30;;
57327;SDS011;43162;51.040;18.244;2023-01-01T10:28:22;4.90;;;3.40;;
57327;SDS011;43162;51.040;18.244;2023-01-01T10:31:24;10.40;;;3.90;;
57327;SDS011;43162;51.040;18.244;2023-01-01T10:34:05;6.30;;;3.80;;
57327;SDS011;43162;51.040;18.244;2023-01-01T10:36:37;8.50;;;4.50;;
57327;SDS011;43162;51.040;18.244;2023-01-01T10:39:03;8.10;;;4.20;;
57327;SDS011;43162;51.040;18.244;2023-01-01T10:41:29;12.30;;;4.80;;
57327;SDS011;43162;51.040;18.244;2023-01-01T10:43:55;9.10;;;4.70;;
57327;SDS011;43162;51.040;18.244;2023-01-01T10:46:21;13.60;;;5.80;;
57327;SDS011;43162;51.040;18.244;2023-01-01T10:51:30;13.10;;;6.40;;
57327;SDS011;43162;51.040;18.244;2023-01-01T10:53:56;8.40;;;4.70;;
57327;SDS011;43162;51.040;18.244;2023-01-01T10:56:22;11.90;;;5.90;;
57327;SDS011;43162;51.040;18.244;2023-01-01T10:58:52;19.20;;;6.20;;
57327;SDS011;43162;51.040;18.244;2023-01-01T11:09:05;18.20;;;7.70;;
57327;SDS011;43162;51.040;18.244;2023-01-01T11:11:46;11.70;;;6.30;;
57327;SDS011;43162;51.040;18.244;2023-01-01T11:14:17;17.20;;;8.30;;
57327;SDS011;43162;51.040;18.244;2023-01-01T11:16:45;18.30;;;8.20;;
57327;SDS011;43162;51.040;18.244;2023-01-01T11:19:23;14.90;;;8.00;;
57327;SDS011;43162;51.040;18.244;2023-01-01T11:21:52;12.20;;;6.40;;
57327;SDS011;43162;51.040;18.244;2023-01-01T11:24:21;11.10;;;5.60;;
57327;SDS011;43162;51.040;18.244;2023-01-01T11:26:49;13.20;;;6.10;;
57327;SDS011;43162;51.040;18.244;2023-01-01T11:29:19;11.30;;;4.80;;
57327;SDS011;43162;51.040;18.244;2023-01-01T11:31:50;11.00;;;5.50;;
57327;SDS011;43162;51.040;18.244;2023-01-01T11:36:50;10.90;;;5.10;;
57327;SDS011;43162;51.040;18.244;2023-01-01T11:39:25;10.00;;;5.00;;
57327;SDS011;43162;51.040;18.244;2023-01-01T11:41:54;10.30;;;5.10;;
57327;SDS011;43162;51.040;18.244;2023-01-01T11:46:58;13.00;;;5.20;;
57327;SDS011;43162;51.040;18.244;2023-01-01T11:49:25;11.10;;;5.30;;
57327;SDS011;43162;51.040;18.244;2023-01-01T11:51:52;8.60;;;5.10;;
57327;SDS011;43162;51.040;18.244;2023-01-01T11:56:54;11.00;;;5.80;;
57327;SDS011;43162;51.040;18.244;2023-01-01T11:59:25;6.70;;;3.80;;
57327;SDS011;43162;51.040;18.244;2023-01-01T12:04:36;6.50;;;4.20;;
57327;SDS011;43162;51.040;18.244;2023-01-01T12:07:08;8.00;;;3.10;;
57327;SDS011;43162;51.040;18.244;2023-01-01T12:17:38;7.90;;;4.60;;
57327;SDS011;43162;51.040;18.244;2023-01-01T12:20:27;8.50;;;4.80;;
57327;SDS011;43162;51.040;18.244;2023-01-01T12:22:55;104.40;;;26.00;;
57327;SDS011;43162;51.040;18.244;2023-01-01T12:25:21;176.80;;;40.80;;
57327;SDS011;43162;51.040;18.244;2023-01-01T12:28:07;197.00;;;57.80;;
57327;SDS011;43162;51.040;18.244;2023-01-01T12:57:56;10.50;;;7.00;;
57327;SDS011;43162;51.040;18.244;2023-01-01T13:00:46;11.10;;;5.70;;
57327;SDS011;43162;51.040;18.244;2023-01-01T13:03:25;8.70;;;5.60;;
57327;SDS011;43162;51.040;18.244;2023-01-01T13:05:56;9.70;;;5.40;;
57327;SDS011;43162;51.040;18.244;2023-01-01T13:08:22;9.40;;;5.80;;
57327;SDS011;43162;51.040;18.244;2023-01-01T13:10:48;12.00;;;5.90;;
57327;SDS011;43162;51.040;18.244;2023-01-01T13:13:17;12.90;;;6.00;;
57327;SDS011;43162;51.040;18.244;2023-01-01T13:15:44;14.00;;;6.30;;
57327;SDS011;43162;51.040;18.244;2023-01-01T13:21:01;11.20;;;6.40;;
57327;SDS011;43162;51.040;18.244;2023-01-01T13:28:43;13.20;;;5.60;;
57327;SDS011;43162;51.040;18.244;2023-01-01T13:31:10;10.10;;;5.90;;
57327;SDS011;43162;51.040;18.244;2023-01-01T13:33:35;9.80;;;4.90;;
57327;SDS011;43162;51.040;18.244;2023-01-01T13:38:50;11.00;;;6.20;;
57327;SDS011;43162;51.040;18.244;2023-01-01T13:43:50;12.60;;;5.70;;
57327;SDS011;43162;51.040;18.244;2023-01-01T13:52:00;11.00;;;5.60;;
57327;SDS011;43162;51.040;18.244;2023-01-01T14:00:17;11.10;;;5.90;;
57327;SDS011;43162;51.040;18.244;2023-01-01T14:02:47;9.40;;;5.60;;
57327;SDS011;43162;51.040;18.244;2023-01-01T14:07:51;15.90;;;7.40;;
57327;SDS011;43162;51.040;18.244;2023-01-01T14:10:33;14.20;;;6.80;;
57327;SDS011;43162;51.040;18.244;2023-01-01T14:15:35;15.10;;;7.30;;
57327;SDS011;43162;51.040;18.244;2023-01-01T14:18:12;9.80;;;6.10;;
57327;SDS011;43162;51.040;18.244;2023-01-01T14:20:50;9.90;;;6.10;;
57327;SDS011;43162;51.040;18.244;2023-01-01T14:23:30;11.00;;;6.70;;
57327;SDS011;43162;51.040;18.244;2023-01-01T14:26:02;14.80;;;6.50;;
57327;SDS011;43162;51.040;18.244;2023-01-01T14:28:32;9.30;;;5.40;;
57327;SDS011;43162;51.040;18.244;2023-01-01T14:31:20;11.30;;;5.40;;
57327;SDS011;43162;51.040;18.244;2023-01-01T14:33:45;11.40;;;6.30;;
57327;SDS011;43162;51.040;18.244;2023-01-01T14:36:15;14.50;;;6.50;;
57327;SDS011;43162;51.040;18.244;2023-01-01T14:38:45;13.90;;;7.40;;
57327;SDS011;43162;51.040;18.244;2023-01-01T14:43:55;15.70;;;10.70;;
57327;SDS011;43162;51.040;18.244;2023-01-01T14:46:24;33.60;;;27.10;;
57327;SDS011;43162;51.040;18.244;2023-01-01T14:48:51;39.00;;;26.50;;
57327;SDS011;43162;51.040;18.244;2023-01-01T14:51:19;21.50;;;12.30;;
57327;SDS011;43162;51.040;18.244;2023-01-01T14:53:47;14.70;;;8.10;;
57327;SDS011;43162;51.040;18.244;2023-01-01T14:56:27;13.50;;;7.90;;
57327;SDS011;43162;51.040;18.244;2023-01-01T14:58:53;12.60;;;8.50;;
57327;SDS011;43162;51.040;18.244;2023-01-01T15:01:31;15.30;;;9.20;;
57327;SDS011;43162;51.040;18.244;2023-01-01T15:04:05;17.30;;;9.20;;
57327;SDS011;43162;51.040;18.244;2023-01-01T15:06:59;18.60;;;9.80;;
57327;SDS011;43162;51.040;18.244;2023-01-01T15:09:25;18.40;;;9.70;;
57327;SDS011;43162;51.040;18.244;2023-01-01T15:11:52;28.90;;;11.70;;
57327;SDS011;43162;51.040;18.244;2023-01-01T15:14:32;34.40;;;17.70;;
57327;SDS011;43162;51.040;18.244;2023-01-01T15:17:11;42.90;;;20.50;;
57327;SDS011;43162;51.040;18.244;2023-01-01T15:19:39;34.50;;;19.40;;
57327;SDS011;43162;51.040;18.244;2023-01-01T15:22:10;37.10;;;16.90;;
57327;SDS011;43162;51.040;18.244;2023-01-01T15:24:43;31.70;;;15.20;;
57327;SDS011;43162;51.040;18.244;2023-01-01T15:27:16;21.80;;;12.20;;
57327;SDS011;43162;51.040;18.244;2023-01-01T15:29:55;24.90;;;12.50;;
57327;SDS011;43162;51.040;18.244;2023-01-01T15:32:23;24.70;;;12.30;;
57327;SDS011;43162;51.040;18.244;2023-01-01T15:35:00;25.20;;;12.50;;
57327;SDS011;43162;51.040;18.244;2023-01-01T15:45:20;28.40;;;13.40;;
57327;SDS011;43162;51.040;18.244;2023-01-01T15:47:49;22.60;;;11.70;;
57327;SDS011;43162;51.040;18.244;2023-01-01T15:52:42;21.80;;;11.90;;
57327;SDS011;43162;51.040;18.244;2023-01-01T15:55:28;41.80;;;19.40;;
57327;SDS011;43162;51.040;18.244;2023-01-01T15:57:56;48.40;;;24.20;;
57327;SDS011;43162;51.040;18.244;2023-01-01T16:00:23;50.60;;;26.20;;
57327;SDS011;43162;51.040;18.244;2023-01-01T16:02:53;47.40;;;25.40;;
57327;SDS011;43162;51.040;18.244;2023-01-01T16:05:22;34.10;;;20.80;;
57327;SDS011;43162;51.040;18.244;2023-01-01T16:07:59;32.20;;;16.80;;
57327;SDS011;43162;51.040;18.244;2023-01-01T16:10:27;26.80;;;14.10;;
57327;SDS011;43162;51.040;18.244;2023-01-01T16:12:53;25.70;;;11.90;;
57327;SDS011;43162;51.040;18.244;2023-01-01T16:15:18;28.10;;;13.80;;
57327;SDS011;43162;51.040;18.244;2023-01-01T16:17:44;34.40;;;16.30;;
57327;SDS011;43162;51.040;18.244;2023-01-01T16:20:13;41.80;;;20.00;;
57327;SDS011;43162;51.040;18.244;2023-01-01T16:22:40;31.80;;;16.80;;
57327;SDS011;43162;51.040;18.244;2023-01-01T16:25:13;30.30;;;15.80;;
57327;SDS011;43162;51.040;18.244;2023-01-01T16:27:40;30.70;;;16.30;;
57327;SDS011;43162;51.040;18.244;2023-01-01T16:30:08;34.60;;;17.40;;
57327;SDS011;43162;51.040;18.244;2023-01-01T16:32:35;33.50;;;18.00;;
57327;SDS011;43162;51.040;18.244;2023-01-01T16:35:01;35.00;;;18.30;;
57327;SDS011;43162;51.040;18.244;2023-01-01T16:37:29;44.90;;;21.70;;
57327;SDS011;43162;51.040;18.244;2023-01-01T16:39:54;37.70;;;19.80;;
57327;SDS011;43162;51.040;18.244;2023-01-01T16:42:20;36.10;;;18.10;;
57327;SDS011;43162;51.040;18.244;2023-01-01T16:44:46;38.00;;;17.40;;
57327;SDS011;43162;51.040;18.244;2023-01-01T16:47:12;36.40;;;17.90;;
57327;SDS011;43162;51.040;18.244;2023-01-01T16:49:38;34.10;;;17.00;;